Altro, Kentucky
Current Conditions -  °F | °C
As of 1:33 PM on Friday 31 Oct 2014 (Local Time) from KJKL Reporting Station
Light Rain Light Rain  
Wind Chill: 44°   Ceiling: 1600
Heat Index: 44°   Visibility: 6mi
Dew Point: 41°   Wind: 3mph
Humidity: 89%   Direction: NA
Pressure: 29.91"   Gusts: NA
Location:  37.532°N, 83.3068°W
Report Text: KJKL 311733Z AUTO VRB03KT 6SM -RA BR FEW005 BKN016 OVC020 07/05 A2991 RMK AO2 P0001 T00670050
Loading
Personal Weather Stations






























Interactive Weather Map
Tropical Storm Tracking
New forecast layout! Learn more

10-Day Weather Forecast

Advertisements
Track Severe Weather on mobile